• Join FlightAware (Why Join?)
  • Login
  • US Flag 
08:50PM EDT


 

Airport Tracker/Info


-or-


 

Live Flight TrackerFlight Track Log ✈ AVN11 ✈ 13-Oct-2013 ✈ YSSY / SYD - NVVV / VLI

Flight Track Log - Related Links

Times and Time Zones

All times are in EDT time to prevent confusion due to time zone crossing. See the AVN11 flight status page for this flight to view local times or setup timezone preferences in your user account.

Time Position Orientation Groundspeed Altitude Reporting Facility
EDT Latitude Longitude Course Direction KTS MPH feet Rate Location/Type
09:26PM -33.9667 151.1928 80° East 82 94  Level FlightAware ADS-B (YRAY)
09:26PM -33.9543 151.1896 348° North 150 173 600 2,400 Climbing FlightAware ADS-B (YRAY)
09:27PM -33.9407 151.1876 353° North 150 173 1,700 3,000 Climbing FlightAware ADS-B
09:27PM -33.9340 151.1914 25° Northeast 156 180 2,100 2,160 Climbing FlightAware ADS-B (YRAY)
09:27PM -33.9286 151.1991 50° Northeast 183 211 2,400 1,800 Climbing FlightAware ADS-B (YRAY)
09:27PM -33.9262 151.2094 74° East 203 234 2,700 1,680 Climbing FlightAware ADS-B (YRAY)
09:28PM -33.9262 151.2148 91° East 221 254 3,000 1,680 Climbing FlightAware ADS-B
09:28PM -33.9320 151.2330 111° Southeast 225 259 3,300 1,560 Climbing FlightAware ADS-B
09:28PM -33.9362 151.2441 114° Southeast 229 264 3,500 1,260 Climbing FlightAware ADS-B (YRAY)
09:28PM -33.9379 151.2563 100° East 240 276 3,700 1,500 Climbing FlightAware ADS-B
09:28PM -33.9379 151.2707 90° East 253 291 4,000 1,200 Climbing FlightAware ADS-B (YRAY)
09:28PM -33.9375 151.2855 88° East 271 312 4,100 840 Climbing FlightAware ADS-B (YRAY)
09:29PM -33.9370 151.3029 88° East 270 311 4,300 1,920 Climbing FlightAware ADS-B
09:29PM -33.9356 151.3373 87° East 304 350 5,200 2,820 Climbing FlightAware ADS-B
09:29PM -33.9348 151.3656 88° East 305 351 6,100 3,180 Climbing FlightAware ADS-B
09:30PM -33.9332 151.4040 87° East 301 346 7,300 2,760 Climbing FlightAware ADS-B
09:30PM -33.9317 151.4435 87° East 312 359 8,200 2,520 Climbing FlightAware ADS-B
09:30PM -33.9300 151.4802 87° East 325 374 9,100 2,340 Climbing FlightAware ADS-B
09:31PM -33.9284 151.5208 87° East 340 391 9,900 2,400 Climbing FlightAware ADS-B
09:31PM -33.9274 151.5457 87° East 345 397 10,500 2,460 Climbing FlightAware ADS-B (YRAY)
09:31PM -33.9272 151.5536 88° East 350 403 10,600 2,100 Climbing FlightAware ADS-B (YRAY)
09:31PM -33.9250 151.6249 88° East 370 426 11,900 2,100 Climbing FlightAware ADS-B
09:32PM -33.9218 151.7078 87° East 400 460 13,200 2,220 Climbing FlightAware ADS-B
09:33PM -33.9182 151.7937 87° East 413 475 14,800 2,520 Climbing FlightAware ADS-B
09:33PM -33.9148 151.8749 87° East 415 478 16,300 2,400 Climbing FlightAware ADS-B
09:34PM -33.9104 151.9822 87° East 428 493 18,100 2,100 Climbing FlightAware ADS-B
09:35PM -33.9030 152.0532 83° East 428 493 19,000 1,620 Climbing FlightAware ADS-B
09:35PM -33.8938 152.0802 68° East 432 497 19,500 1,200 Climbing FlightAware ADS-B
09:36PM -33.8938 152.0802 68° East 448 516 20,200 1,080 Climbing FlightAware ADS-B
09:36PM -33.7802 152.2370 68° East 445 512 20,900 1,740 Climbing Aus ATC (RADAR)
09:36PM -33.7600 152.2630 68° East 458 527 21,800 3,000 Climbing FlightAware
09:37PM -33.7411 152.2878 47° Northeast 463 533 22,300 1,440 Climbing FlightAware ADS-B
09:37PM -33.6940 152.3490 47° Northeast 458 527 23,000 1,440 Climbing FlightAware
09:38PM -33.6340 152.4270 47° Northeast 477 549 24,100 1,680 Climbing FlightAware
09:38PM -33.5870 152.4880 47° Northeast 477 549 24,900 1,560 Climbing FlightAware
09:39PM -33.5330 152.5570 47° Northeast 483 556 25,800 1,320 Climbing FlightAware
09:40PM -33.4710 152.6370 47° Northeast 496 571 26,600 1,440 Climbing FlightAware
09:40PM -33.4250 152.6970 47° Northeast 492 566 27,500 1,800 Climbing FlightAware
09:41PM -33.3710 152.7660 47° Northeast 481 554 28,600 1,080 Climbing FlightAware
09:41PM -33.3106 152.8441 47° Northeast 481 554 28,900 1,020 Climbing Aus ATC (RADAR)
09:41PM -33.3110 152.8430 47° Northeast 492 566 29,300 1,260 Climbing FlightAware
09:42PM -33.2620 152.9060 47° Northeast 501 577 29,600 600 Climbing FlightAware
09:43PM -33.2050 152.9780 47° Northeast 513 590 30,000 600 Climbing FlightAware
09:43PM -33.1500 153.0490 47° Northeast 523 602 30,300 780 Climbing FlightAware
09:44PM -33.0910 153.1240 47° Northeast 528 608 30,900 1,080 Climbing FlightAware
09:44PM -33.0230 153.2110 47° Northeast 527 606 31,700 1,020 Climbing FlightAware
09:45PM -32.9750 153.2720 47° Northeast 531 611 32,100 720 Climbing FlightAware
09:45PM -32.9160 153.3460 46° Northeast 536 617 32,500 600 Climbing FlightAware
09:46PM -32.8470 153.4330 47° Northeast 547 629 32,900 600 Climbing FlightAware
09:47PM -32.7820 153.5140 46° Northeast 553 636 33,300 600 Climbing FlightAware
09:47PM -32.7176 153.5964 46° Northeast 555 639 33,600 1,200 Climbing Aus ATC (RADAR)
09:47PM -32.7230 153.5890 46° Northeast 552 635 34,000 1,800 Climbing FlightAware
09:48PM -32.6500 153.6800 46° Northeast 544 626 34,900 1,080 Climbing FlightAware
09:48PM -32.5990 153.7440 47° Northeast 542 624 35,300 780 Climbing FlightAware
09:49PM -32.5370 153.8220 47° Northeast 543 625 35,800 660 Climbing FlightAware
09:50PM -32.4740 153.9000 46° Northeast 546 628 36,100 420 Climbing FlightAware
09:50PM -32.3940 153.9990 46° Northeast 551 634 36,400 480 Climbing FlightAware
09:51PM -32.3400 154.0660 46° Northeast 551 634 36,700 360 Climbing FlightAware
09:51PM -32.2806 154.1402 46° Northeast 537 618 36,800 420 Climbing Aus ATC (RADAR)
09:52PM -32.2710 154.1520 46° Northeast 548 631 37,000 300 Climbing FlightAware
09:52PM -32.2180 154.2170 46° Northeast 546 628 37,000  Level FlightAware
09:53PM -32.1530 154.2970 46° Northeast 546 628 37,000  Level FlightAware
09:53PM -32.0910 154.3740 46° Northeast 543 625 37,000  Level FlightAware
09:54PM -32.0300 154.4480 46° Northeast 543 625 37,000  Level FlightAware
09:54PM -31.9750 154.5160 46° Northeast 540 621 37,000 -360 Level FlightAware
09:55PM -31.9584 154.5359 46° Northeast 525 604 36,800 -360 Descending Aus ATC (RADAR)
09:55PM -31.8977 154.6095 46° Northeast 525 604 36,800 240 Level Aus ATC (RADAR)
09:55PM -31.8860 154.6230 46° Northeast 538 619 37,000 180 Climbing FlightAware
09:56PM -31.8150 154.7100 46° Northeast 538 619 37,000  Level FlightAware
09:57PM -31.7720 154.7630 46° Northeast 538 619 37,000  Level FlightAware
09:57PM -31.6940 154.8580 46° Northeast 536 617 37,000 -180 Level FlightAware
09:58PM -31.5968 154.9753 46° Northeast 518 596 36,800  Descending Aus ATC (RADAR)
09:58PM -31.6080 154.9620 46° Northeast 536 617 37,000 300 Climbing FlightAware
09:59PM -31.5550 155.0260 46° Northeast 536 617 37,000  Level FlightAware
09:59PM -31.5030 155.0900 46° Northeast 536 617 37,000  Level FlightAware
10:00PM -31.4500 155.1540 46° Northeast 536 617 37,000  Level FlightAware
10:00PM -31.3970 155.2180 46° Northeast 536 617 37,000  Level FlightAware
10:01PM -31.3450 155.2820 46° Northeast 536 617 37,000  Level FlightAware
10:02PM -31.2900 155.3470 45° Northeast 536 617 37,000  Level FlightAware
10:02PM -31.2380 155.4110 46° Northeast 536 617 37,000  Level FlightAware
10:03PM -31.1850 155.4750 46° Northeast 536 617 37,000  Level FlightAware
10:03PM -31.1320 155.5390 46° Northeast 536 617 37,000  Level FlightAware
10:04PM -31.0790 155.6030 46° Northeast 536 617 37,000  Level FlightAware
10:05PM -31.0270 155.6660 46° Northeast 536 617 37,000  Level FlightAware
10:05PM -30.9740 155.7300 46° Northeast 536 617 37,000  Level FlightAware
10:06PM -30.9210 155.7940 46° Northeast 536 617 37,000  Level FlightAware
10:06PM -30.8690 155.8570 46° Northeast 536 617 37,000  Level FlightAware
10:07PM -30.8130 155.9240 46° Northeast 536 617 37,000 -120 Level FlightAware
10:08PM -30.5577 156.2503 46° Northeast 538 619 36,800  Descending Aus ATC (RADAR)
10:10PM -30.3933 156.4658 49° Northeast 535 616 37,000 60 Climbing Aus ATC (RADAR)
10:10PM -30.3607 156.5090 49° Northeast 534 615 37,000  Level Aus ATC (RADAR)
10:11PM -30.3031 156.5838 48° Northeast 533 613 37,000  Level Aus ATC (RADAR)
10:11PM -30.2379 156.6691 48° Northeast 531 611 37,000  Level Aus ATC (RADAR)
10:12PM -30.1807 156.7439 48° Northeast 531 611 37,000  Level Aus ATC (RADAR)
10:13PM -30.1064 156.8396 48° Northeast 532 612 37,000  Level Aus ATC (RADAR)
10:13PM -30.0652 156.8929 48° Northeast 532 612 37,000  Level Aus ATC (RADAR)
10:14PM -29.9842 156.9990 49° Northeast 528 608 37,000  Level Aus ATC (RADAR)
10:15PM -29.9254 157.0745 48° Northeast 534 615 37,000  Level Aus ATC (RADAR)
10:15PM -29.8668 157.1499 48° Northeast 537 618 37,000  Level Aus ATC (RADAR)
10:16PM -29.7925 157.2457 48° Northeast 535 616 37,000  Level Aus ATC (RADAR)
10:16PM -29.7503 157.2992 48° Northeast 536 617 37,000  Level Aus ATC (RADAR)
10:17PM -29.6918 157.3740 48° Northeast 537 618 37,000  Level Aus ATC (RADAR)
10:18PM -29.6164 157.4700 48° Northeast 536 617 37,000  Level Aus ATC (RADAR)
10:18PM -29.5586 157.5440 48° Northeast 534 615 37,000  Level Aus ATC (RADAR)
10:19PM -29.4336 157.7026 48° Northeast 534 615 37,000  Level Aus ATC (RADAR)
10:20PM -29.3839 157.7664 48° Northeast 533 613 37,000  Level Aus ATC (RADAR)
10:20PM -29.3370 157.8250 48° Northeast 536 617 37,000  Level FlightAware
10:21PM -29.2790 157.8980 48° Northeast 536 617 37,000  Level FlightAware
10:22PM -29.1980 158.0010 48° Northeast 537 618 37,000  Level FlightAware
10:22PM -29.1470 158.0650 48° Northeast 537 618 37,000  Level FlightAware
10:23PM -29.0760 158.1540 48° Northeast 537 618 37,000  Level FlightAware
10:24PM -29.0250 158.2190 48° Northeast 537 618 37,000  Level FlightAware
10:24PM -28.9740 158.2840 48° Northeast 537 618 37,000  Level FlightAware
10:25PM -28.9230 158.3480 48° Northeast 537 618 37,000  Level FlightAware
10:26PM -28.8730 158.4130 49° Northeast 537 618 37,000  Level FlightAware
10:26PM -28.8220 158.4770 48° Northeast 537 618 37,000  Level FlightAware
10:27PM -28.7710 158.5420 48° Northeast 537 618 37,000  Level FlightAware
10:27PM -28.7200 158.6060 48° Northeast 537 618 37,000  Level FlightAware
10:28PM -28.6690 158.6710 48° Northeast 537 618 37,000  Level FlightAware
10:28PM -28.4949 158.8732 224° Southwest 37,000  Level Aus ATC (Calculated)
10:29PM -28.6170 158.7370 48° Northeast 537 618 37,000  Level FlightAware
10:29PM -28.5660 158.8010 48° Northeast 537 618 37,000  Level FlightAware
10:30PM -28.5150 158.8650 48° Northeast 537 618 37,000  Level FlightAware
10:30PM -28.4640 158.9300 48° Northeast 537 618 37,000  Level FlightAware
10:31PM -28.4130 158.9940 48° Northeast 537 618 37,000  Level FlightAware
10:31PM -28.2248 159.2049 223° Southwest 37,000  Level Aus ATC (Calculated)
10:32PM -28.3620 159.0580 48° Northeast 537 618 37,000  Level FlightAware
10:32PM -28.3120 159.1220 48° Northeast 537 618 37,000  Level FlightAware
10:35PM -28.0986 159.3618 47° Northeast  Level FlightAware Approximate
10:35PM -27.8250 159.6912 227° Southwest 37,000  Level Aus ATC (Calculated)
10:36PM -28.0084 159.4715 47° Northeast  Level FlightAware Approximate
10:36PM -27.7373 159.7971 47° Northeast 37,000  Level Aus ATC (Calculated)
10:37PM -27.7294 159.8065 47° Northeast  Level FlightAware Approximate
10:38PM -27.6280 159.9287 47° Northeast  Level FlightAware Approximate
10:39PM -27.5368 160.0382 47° Northeast  Level FlightAware Approximate
10:40PM -27.4455 160.1475 47° Northeast  Level FlightAware Approximate
10:40PM -27.3540 160.2568 227° Southwest 37,000  Level Aus ATC (Calculated)
10:41PM -27.3542 160.2566 47° Northeast  Level FlightAware Approximate
10:41PM -27.3173 160.3005 47° Northeast 37,000  Level Aus ATC (Calculated)
10:41PM -27.2812 160.3435 47° Northeast 37,000  Level Aus ATC (Calculated)
10:43PM -27.1546 160.4940 47° Northeast  Level FlightAware Approximate
10:43PM -27.1032 160.5549 47° Northeast 37,000  Level Aus ATC (Calculated)
10:44PM -26.9718 160.7103 46° Northeast 37,000  Level Aus ATC (Calculated)
10:45PM -26.9101 160.7830 46° Northeast 37,000  Level Aus ATC (Calculated)
10:46PM -26.8432 160.8617 46° Northeast  Level FlightAware Approximate
10:47PM -26.7508 160.9702 46° Northeast  Level FlightAware Approximate
10:47PM -26.7306 160.9940 46° Northeast 37,000  Level Aus ATC (Calculated)
10:49PM -26.5711 161.1806 46° Northeast  Level FlightAware Approximate
10:49PM -26.5677 161.1846 46° Northeast 37,000  Level Aus ATC (Calculated)
10:51PM -26.3849 161.3974 46° Northeast  Level FlightAware Approximate
10:52PM -26.2926 161.5045 46° Northeast  Level FlightAware Approximate
10:53PM -26.2002 161.6114 46° Northeast  Level FlightAware Approximate
10:54PM -26.1077 161.7182 46° Northeast  Level FlightAware Approximate
10:55PM -26.0152 161.8248 46° Northeast  Level FlightAware Approximate
10:56PM -25.9226 161.9312 46° Northeast  Level FlightAware Approximate
10:57PM -25.8299 162.0374 46° Northeast  Level FlightAware Approximate
10:58PM -25.7371 162.1435 46° Northeast  Level FlightAware Approximate
10:59PM -25.6443 162.2494 46° Northeast  Level FlightAware Approximate
10:59PM -25.5780 162.3248 46° Northeast 37,000  Level Aus ATC (Calculated)
11:00PM -25.4850 162.4305 46° Northeast  Level FlightAware Approximate
11:01PM -25.3920 162.5359 46° Northeast  Level FlightAware Approximate
11:02PM -25.2988 162.6412 46° Northeast  Level FlightAware Approximate
11:03PM -25.2056 162.7464 46° Northeast  Level FlightAware Approximate
11:04PM -25.1123 162.8513 46° Northeast  Level FlightAware Approximate
11:05PM -25.0190 162.9561 46° Northeast  Level FlightAware Approximate
11:06PM -24.9256 163.0608 45° Northeast  Level FlightAware Approximate
11:07PM -25.0190 162.9561 225° Southwest  Level FlightAware Approximate
11:08PM -24.9256 163.0608 45° Northeast  Level FlightAware Approximate
11:09PM -25.0190 162.9561 225° Southwest  Level FlightAware Approximate
11:10PM -24.9256 163.0608 45° Northeast  Level FlightAware Approximate
11:11PM -24.9213 163.0654 45° Northeast  Level FlightAware Approximate
11:12PM -24.8277 163.1698 45° Northeast  Level FlightAware Approximate
11:13PM -24.7340 163.2740 45° Northeast  Level FlightAware Approximate
11:14PM -24.6402 163.3780 45° Northeast  Level FlightAware Approximate
11:15PM -24.5464 163.4819 45° Northeast  Level FlightAware Approximate
11:16PM -24.4525 163.5857 45° Northeast  Level FlightAware Approximate
11:17PM -24.3585 163.6893 45° Northeast  Level FlightAware Approximate
11:18PM -24.2645 163.7927 45° Northeast  Level FlightAware Approximate
11:19PM -24.1704 163.8960 45° Northeast  Level FlightAware Approximate
11:20PM -24.0762 163.9991 45° Northeast  Level FlightAware Approximate
11:21PM -23.9820 164.1021 45° Northeast  Level FlightAware Approximate
11:22PM -23.8876 164.2049 45° Northeast  Level FlightAware Approximate
11:23PM -23.7932 164.3076 45° Northeast  Level FlightAware Approximate
11:24PM -23.6988 164.4101 45° Northeast  Level FlightAware Approximate
11:25PM -23.6043 164.5125 45° Northeast  Level FlightAware Approximate
11:26PM -23.5097 164.6147 45° Northeast  Level FlightAware Approximate
11:27PM -23.4150 164.7168 45° Northeast  Level FlightAware Approximate
11:28PM -23.3203 164.8187 45° Northeast  Level FlightAware Approximate
11:29PM -23.2255 164.9205 45° Northeast  Level FlightAware Approximate
11:30PM -23.1306 165.0221 45° Northeast  Level FlightAware Approximate
11:31PM -23.0356 165.1236 45° Northeast  Level FlightAware Approximate
11:32PM -22.9406 165.2249 44° Northeast  Level FlightAware Approximate
11:33PM -22.8456 165.3261 44° Northeast  Level FlightAware Approximate
11:34PM -22.7504 165.4271 44° Northeast  Level FlightAware Approximate
11:35PM -22.6552 165.5280 44° Northeast  Level FlightAware Approximate
11:36PM -22.5600 165.6288 44° Northeast  Level FlightAware Approximate
11:37PM -22.4647 165.7294 44° Northeast  Level FlightAware Approximate
11:38PM -22.3693 165.8300 44° Northeast  Level FlightAware Approximate
11:39PM -22.2738 165.9303 44° Northeast  Level FlightAware Approximate
11:40PM -22.1783 166.0305 44° Northeast  Level FlightAware Approximate
11:41PM -22.0828 166.1306 44° Northeast  Level FlightAware Approximate
11:42PM -21.9822 166.2228 24° Northeast  Level FlightAware Approximate
11:43PM -21.8606 166.2811 24° Northeast  Level FlightAware Approximate
11:44PM -21.7389 166.3394 24° Northeast  Level FlightAware Approximate
11:45PM -21.6173 166.3976 24° Northeast  Level FlightAware Approximate
11:46PM -21.4956 166.4556 24° Northeast  Level FlightAware Approximate
11:47PM -21.3738 166.5136 24° Northeast  Level FlightAware Approximate
11:48PM -21.2521 166.5715 24° Northeast  Level FlightAware Approximate
11:49PM -21.1303 166.6293 24° Northeast  Level FlightAware Approximate
11:50PM -21.0086 166.6870 24° Northeast  Level FlightAware Approximate
11:51PM -20.8867 166.7446 24° Northeast  Level FlightAware Approximate
11:52PM -20.7649 166.8021 24° Northeast  Level FlightAware Approximate
11:53PM -20.6431 166.8595 24° Northeast  Level FlightAware Approximate
11:54PM -20.5212 166.9168 24° Northeast  Level FlightAware Approximate
11:55PM -20.3993 166.9740 24° Northeast  Level FlightAware Approximate
11:56PM -20.2775 167.0312 24° Northeast  Level FlightAware Approximate
11:57PM -20.1555 167.0882 24° Northeast  Level FlightAware Approximate
11:58PM -20.0336 167.1452 24° Northeast  Level FlightAware Approximate
11:59PM -19.9117 167.2021 24° Northeast  Level FlightAware Approximate
12:00AM -19.7897 167.2589 24° Northeast  Level FlightAware Approximate
12:01AM -19.6677 167.3155 24° Northeast  Level FlightAware Approximate
12:02AM -19.5457 167.3721 24° Northeast  Level FlightAware Approximate
12:03AM -19.4238 167.4289 24° Northeast  Level FlightAware Approximate
12:04AM -19.3019 167.4857 24° Northeast  Level FlightAware Approximate
12:05AM -19.1800 167.5425 24° Northeast  Level FlightAware Approximate
12:06AM -19.0581 167.5992 24° Northeast  Level FlightAware Approximate
12:07AM -18.9362 167.6557 24° Northeast  Level FlightAware Approximate
12:08AM -18.8142 167.7122 24° Northeast  Level FlightAware Approximate
12:09AM -18.6923 167.7687 24° Northeast  Level FlightAware Approximate
12:10AM -18.5703 167.8250 24° Northeast  Level FlightAware Approximate
12:11AM -18.4484 167.8815 24° Northeast  Level FlightAware Approximate
12:12AM -18.3265 167.9379 24° Northeast  Level FlightAware Approximate
12:13AM -18.2046 167.9942 24° Northeast  Level FlightAware Approximate
12:14AM -18.0826 168.0505 24° Northeast  Level FlightAware Approximate
12:15AM -17.9607 168.1067 24° Northeast  Level FlightAware Approximate
12:16AM -17.8387 168.1629 24° Northeast  Level FlightAware Approximate
12:17AM -17.7167 168.2189 24° Northeast  Level FlightAware Approximate
12:18AM -17.6621 168.2439 24° Northeast  Level FlightAware Approximate
12:19AM -17.6993 168.3198 24° Northeast  Level Estimated
12:20AM -17.6993 168.3198 24° Northeast  Level Estimated
12:21AM -17.6993 168.3198 24° Northeast  Level Estimated
12:22AM -17.6993 168.3198 24° Northeast  Level Estimated
12:23AM -17.6993 168.3198 24° Northeast  Level Estimated
12:24AM -17.6993 168.3198 24° Northeast  Level Estimated
12:25AM -17.6993 168.3198 24° Northeast  Level Estimated
12:26AM -17.6993 168.3198 24° Northeast  Level Estimated
12:27AM -17.6993 168.3198 24° Northeast  Level Estimated
12:28AM -17.6993 168.3198 24° Northeast  Level Estimated
12:29AM -17.6993 168.3198 24° Northeast  Level Estimated
12:30AM -17.6993 168.3198 24° Northeast  Level Estimated